Laayoune, Western Sahara
Current Conditions -  °F | °C
As of 8:00 AM on Saturday 25 Oct 2014 (Local Time) from GMML Reporting Station
Broken Clouds Broken Clouds  
Wind Chill: 66°   Ceiling: 600
Heat Index: 66°   Visibility: 4mi
Dew Point: 63°   Wind: 13mph
Humidity: 88%   Direction: 60°ENE
Pressure: 30"   Gusts: NA
Location:  27.15°N, 13.2°W
Report Text: GMML 250800Z 06011KT 6000 BKN006 19/17 Q1016 NOSIG
Loading
Personal Weather Stations






























Interactive Weather Map
Tropical Storm Tracking
New forecast layout! Learn more

10-Day Weather Forecast

Advertisements
Track Severe Weather on mobile